sensor_id;sensor_type;location;lat;lon;timestamp;pressure;altitude;pressure_sealevel;temperature;humidity
49030;BME280;43337;52.070;4.508;2023-02-15T00:01:27;103058.66;;;2.96;100.00
49030;BME280;43337;52.070;4.508;2023-02-15T00:03:53;103070.84;;;2.98;100.00
49030;BME280;43337;52.070;4.508;2023-02-15T00:06:19;103057.69;;;2.92;100.00
49030;BME280;43337;52.070;4.508;2023-02-15T00:08:45;103058.50;;;2.89;100.00
49030;BME280;43337;52.070;4.508;2023-02-15T00:11:13;103067.31;;;2.94;100.00
49030;BME280;43337;52.070;4.508;2023-02-15T00:13:39;103063.81;;;2.94;100.00
49030;BME280;43337;52.070;4.508;2023-02-15T00:16:10;103059.47;;;2.93;100.00
49030;BME280;43337;52.070;4.508;2023-02-15T00:18:36;103049.78;;;2.87;100.00
49030;BME280;43337;52.070;4.508;2023-02-15T00:21:07;103054.97;;;2.87;100.00
49030;BME280;43337;52.070;4.508;2023-02-15T00:23:34;103032.13;;;2.74;100.00
49030;BME280;43337;52.070;4.508;2023-02-15T00:26:07;103045.25;;;2.80;100.00
49030;BME280;43337;52.070;4.508;2023-02-15T00:28:33;103023.19;;;2.64;100.00
49030;BME280;43337;52.070;4.508;2023-02-15T00:31:03;103040.81;;;2.76;100.00
49030;BME280;43337;52.070;4.508;2023-02-15T00:33:29;103018.72;;;2.59;100.00
49030;BME280;43337;52.070;4.508;2023-02-15T00:35:58;103033.66;;;2.66;100.00
49030;BME280;43337;52.070;4.508;2023-02-15T00:38:24;103034.53;;;2.66;100.00
49030;BME280;43337;52.070;4.508;2023-02-15T00:40:53;103044.91;;;2.66;100.00
49030;BME280;43337;52.070;4.508;2023-02-15T00:43:19;103030.03;;;2.61;100.00
49030;BME280;43337;52.070;4.508;2023-02-15T00:45:45;103038.75;;;2.63;100.00
49030;BME280;43337;52.070;4.508;2023-02-15T00:48:11;103036.94;;;2.59;100.00
49030;BME280;43337;52.070;4.508;2023-02-15T00:50:36;103054.28;;;2.60;100.00
49030;BME280;43337;52.070;4.508;2023-02-15T00:53:01;103035.09;;;2.55;100.00
49030;BME280;43337;52.070;4.508;2023-02-15T00:55:27;103022.72;;;2.46;100.00
49030;BME280;43337;52.070;4.508;2023-02-15T00:57:52;103032.31;;;2.49;100.00
49030;BME280;43337;52.070;4.508;2023-02-15T01:00:18;103036.66;;;2.50;100.00
49030;BME280;43337;52.070;4.508;2023-02-15T01:02:43;103028.03;;;2.51;100.00
49030;BME280;43337;52.070;4.508;2023-02-15T01:05:08;103033.25;;;2.51;100.00
49030;BME280;43337;52.070;4.508;2023-02-15T01:07:34;103022.75;;;2.48;100.00
49030;BME280;43337;52.070;4.508;2023-02-15T01:09:59;103020.19;;;2.49;100.00
49030;BME280;43337;52.070;4.508;2023-02-15T01:12:24;103002.56;;;2.37;100.00
49030;BME280;43337;52.070;4.508;2023-02-15T01:14:50;103013.13;;;2.43;100.00
49030;BME280;43337;52.070;4.508;2023-02-15T01:17:15;103017.53;;;2.46;100.00
49030;BME280;43337;52.070;4.508;2023-02-15T01:19:40;103002.56;;;2.37;100.00
49030;BME280;43337;52.070;4.508;2023-02-15T01:22:06;103014.84;;;2.43;100.00
49030;BME280;43337;52.070;4.508;2023-02-15T01:24:32;103003.38;;;2.35;100.00
49030;BME280;43337;52.070;4.508;2023-02-15T01:26:57;103009.44;;;2.35;100.00
49030;BME280;43337;52.070;4.508;2023-02-15T01:29:22;103000.50;;;2.26;100.00
49030;BME280;43337;52.070;4.508;2023-02-15T01:31:48;102995.28;;;2.24;100.00
49030;BME280;43337;52.070;4.508;2023-02-15T01:34:13;102997.81;;;2.23;100.00
49030;BME280;43337;52.070;4.508;2023-02-15T01:36:39;103006.66;;;2.29;100.00
49030;BME280;43337;52.070;4.508;2023-02-15T01:39:04;102976.81;;;2.13;100.00
49030;BME280;43337;52.070;4.508;2023-02-15T01:41:30;102989.03;;;2.17;100.00
49030;BME280;43337;52.070;4.508;2023-02-15T01:44:01;103001.34;;;2.25;100.00
49030;BME280;43337;52.070;4.508;2023-02-15T01:46:49;102994.34;;;2.22;100.00
49030;BME280;43337;52.070;4.508;2023-02-15T01:49:19;102989.97;;;2.19;100.00
49030;BME280;43337;52.070;4.508;2023-02-15T01:51:47;102986.41;;;2.16;100.00
49030;BME280;43337;52.070;4.508;2023-02-15T01:54:21;102980.25;;;2.12;100.00
49030;BME280;43337;52.070;4.508;2023-02-15T01:56:49;102989.88;;;2.16;100.00
49030;BME280;43337;52.070;4.508;2023-02-15T01:59:19;102983.59;;;2.08;100.00
49030;BME280;43337;52.070;4.508;2023-02-15T02:01:46;102984.28;;;2.03;100.00
49030;BME280;43337;52.070;4.508;2023-02-15T02:04:31;102985.34;;;2.09;100.00
49030;BME280;43337;52.070;4.508;2023-02-15T02:07:00;102988.66;;;2.04;100.00
49030;BME280;43337;52.070;4.508;2023-02-15T02:09:26;102990.34;;;2.02;100.00
49030;BME280;43337;52.070;4.508;2023-02-15T02:11:51;102965.00;;;1.93;100.00
49030;BME280;43337;52.070;4.508;2023-02-15T02:14:20;102980.72;;;1.98;100.00
49030;BME280;43337;52.070;4.508;2023-02-15T02:25:31;102967.47;;;1.88;100.00
49030;BME280;43337;52.070;4.508;2023-02-15T02:28:33;102962.22;;;1.87;100.00
49030;BME280;43337;52.070;4.508;2023-02-15T02:49:30;102938.31;;;1.67;100.00
49030;BME280;43337;52.070;4.508;2023-02-15T02:52:01;102936.59;;;1.67;100.00
49030;BME280;43337;52.070;4.508;2023-02-15T02:54:28;102932.97;;;1.62;100.00
49030;BME280;43337;52.070;4.508;2023-02-15T02:56:56;102931.13;;;1.58;100.00
49030;BME280;43337;52.070;4.508;2023-02-15T02:59:32;102889.84;;;1.36;100.00
49030;BME280;43337;52.070;4.508;2023-02-15T03:04:28;102922.38;;;1.55;100.00
49030;BME280;43337;52.070;4.508;2023-02-15T03:07:00;102928.44;;;1.55;100.00
49030;BME280;43337;52.070;4.508;2023-02-15T03:09:38;102927.50;;;1.53;100.00
49030;BME280;43337;52.070;4.508;2023-02-15T03:12:14;102916.00;;;1.43;100.00
49030;BME280;43337;52.070;4.508;2023-02-15T03:14:44;102921.22;;;1.45;100.00
49030;BME280;43337;52.070;4.508;2023-02-15T03:17:12;102879.13;;;1.25;100.00
49030;BME280;43337;52.070;4.508;2023-02-15T03:19:39;102889.72;;;1.31;100.00
49030;BME280;43337;52.070;4.508;2023-02-15T03:22:18;102914.25;;;1.42;100.00
49030;BME280;43337;52.070;4.508;2023-02-15T03:25:13;102918.53;;;1.42;100.00
49030;BME280;43337;52.070;4.508;2023-02-15T03:27:44;102906.25;;;1.35;100.00
49030;BME280;43337;52.070;4.508;2023-02-15T03:30:12;102904.53;;;1.35;100.00
49030;BME280;43337;52.070;4.508;2023-02-15T03:32:41;102905.28;;;1.31;100.00
49030;BME280;43337;52.070;4.508;2023-02-15T03:35:09;102909.66;;;1.34;100.00
49030;BME280;43337;52.070;4.508;2023-02-15T03:37:41;102899.13;;;1.28;100.00
49030;BME280;43337;52.070;4.508;2023-02-15T03:40:12;102907.88;;;1.31;100.00
49030;BME280;43337;52.070;4.508;2023-02-15T03:43:19;102893.84;;;1.25;100.00
49030;BME280;43337;52.070;4.508;2023-02-15T03:45:48;102877.94;;;1.14;100.00
49030;BME280;43337;52.070;4.508;2023-02-15T03:48:34;102888.66;;;1.25;100.00
49030;BME280;43337;52.070;4.508;2023-02-15T03:51:05;102898.16;;;1.24;100.00
49030;BME280;43337;52.070;4.508;2023-02-15T03:53:52;102879.84;;;1.19;100.00
49030;BME280;43337;52.070;4.508;2023-02-15T03:56:18;102872.81;;;1.15;100.00
49030;BME280;43337;52.070;4.508;2023-02-15T03:58:43;102869.31;;;1.15;100.00
49030;BME280;43337;52.070;4.508;2023-02-15T04:01:34;102871.88;;;1.13;100.00
49030;BME280;43337;52.070;4.508;2023-02-15T04:04:25;102877.03;;;1.12;100.00
49030;BME280;43337;52.070;4.508;2023-02-15T04:06:51;102880.59;;;1.15;100.00
49030;BME280;43337;52.070;4.508;2023-02-15T04:09:17;102863.16;;;1.11;100.00
49030;BME280;43337;52.070;4.508;2023-02-15T04:12:02;102858.03;;;1.13;100.00
49030;BME280;43337;52.070;4.508;2023-02-15T04:14:27;102863.22;;;1.13;100.00
49030;BME280;43337;52.070;4.508;2023-02-15T04:17:11;102857.94;;;1.10;100.00
49030;BME280;43337;52.070;4.508;2023-02-15T04:19:37;102867.44;;;1.09;100.00
49030;BME280;43337;52.070;4.508;2023-02-15T04:22:21;102860.44;;;1.07;100.00
49030;BME280;43337;52.070;4.508;2023-02-15T04:25:06;102863.97;;;1.09;100.00
49030;BME280;43337;52.070;4.508;2023-02-15T04:27:36;102848.31;;;1.06;100.00
49030;BME280;43337;52.070;4.508;2023-02-15T04:30:03;102853.53;;;1.07;100.00
49030;BME280;43337;52.070;4.508;2023-02-15T04:32:28;102855.31;;;1.08;100.00
49030;BME280;43337;52.070;4.508;2023-02-15T04:34:54;102852.56;;;1.04;100.00
49030;BME280;43337;52.070;4.508;2023-02-15T04:37:20;102847.53;;;1.08;100.00
49030;BME280;43337;52.070;4.508;2023-02-15T04:39:45;102847.38;;;1.04;100.00
49030;BME280;43337;52.070;4.508;2023-02-15T04:42:10;102856.97;;;1.06;100.00
49030;BME280;43337;52.070;4.508;2023-02-15T04:44:36;102857.81;;;1.05;100.00
49030;BME280;43337;52.070;4.508;2023-02-15T04:47:01;102856.94;;;1.05;100.00
49030;BME280;43337;52.070;4.508;2023-02-15T04:49:26;102843.16;;;1.07;100.00
49030;BME280;43337;52.070;4.508;2023-02-15T04:51:52;102838.78;;;1.05;100.00
49030;BME280;43337;52.070;4.508;2023-02-15T04:54:17;102834.41;;;1.04;100.00
49030;BME280;43337;52.070;4.508;2023-02-15T04:56:42;102831.00;;;1.05;100.00
49030;BME280;43337;52.070;4.508;2023-02-15T04:59:11;102829.09;;;0.99;100.00
49030;BME280;43337;52.070;4.508;2023-02-15T05:01:36;102834.38;;;1.02;100.00
49030;BME280;43337;52.070;4.508;2023-02-15T05:04:02;102845.81;;;1.09;100.00
49030;BME280;43337;52.070;4.508;2023-02-15T05:06:28;102837.00;;;1.04;100.00
49030;BME280;43337;52.070;4.508;2023-02-15T05:08:53;102836.97;;;1.02;100.00
49030;BME280;43337;52.070;4.508;2023-02-15T05:11:18;102836.19;;;1.05;100.00
49030;BME280;43337;52.070;4.508;2023-02-15T05:13:44;102809.94;;;0.94;100.00
49030;BME280;43337;52.070;4.508;2023-02-15T05:16:09;102824.94;;;1.04;100.00
49030;BME280;43337;52.070;4.508;2023-02-15T05:18:34;102832.78;;;1.07;100.00
49030;BME280;43337;52.070;4.508;2023-02-15T05:21:00;102822.34;;;1.04;100.00
49030;BME280;43337;52.070;4.508;2023-02-15T05:23:25;102810.84;;;0.96;100.00
49030;BME280;43337;52.070;4.508;2023-02-15T05:25:51;102820.53;;;1.02;100.00
49030;BME280;43337;52.070;4.508;2023-02-15T05:28:36;102819.69;;;1.03;100.00
49030;BME280;43337;52.070;4.508;2023-02-15T05:31:06;102832.84;;;1.09;100.00
49030;BME280;43337;52.070;4.508;2023-02-15T05:33:33;102837.97;;;1.07;100.00
49030;BME280;43337;52.070;4.508;2023-02-15T05:35:59;102831.09;;;1.08;100.00
49030;BME280;43337;52.070;4.508;2023-02-15T05:38:24;102822.28;;;1.03;100.00
49030;BME280;43337;52.070;4.508;2023-02-15T05:40:51;102811.00;;;1.01;100.00
49030;BME280;43337;52.070;4.508;2023-02-15T05:43:16;102817.97;;;1.03;100.00
49030;BME280;43337;52.070;4.508;2023-02-15T05:45:49;102810.06;;;0.98;100.00
49030;BME280;43337;52.070;4.508;2023-02-15T05:48:16;102801.50;;;1.01;100.00
49030;BME280;43337;52.070;4.508;2023-02-15T05:50:42;102799.75;;;1.00;100.00
49030;BME280;43337;52.070;4.508;2023-02-15T05:53:07;102790.09;;;0.96;100.00
49030;BME280;43337;52.070;4.508;2023-02-15T05:55:32;102812.72;;;1.00;100.00
49030;BME280;43337;52.070;4.508;2023-02-15T05:57:58;102810.06;;;0.98;100.00
49030;BME280;43337;52.070;4.508;2023-02-15T06:00:23;102795.34;;;0.97;100.00
49030;BME280;43337;52.070;4.508;2023-02-15T06:02:51;102794.56;;;1.00;100.00
49030;BME280;43337;52.070;4.508;2023-02-15T06:05:17;102794.47;;;0.97;100.00
49030;BME280;43337;52.070;4.508;2023-02-15T06:07:43;102803.06;;;0.96;100.00
49030;BME280;43337;52.070;4.508;2023-02-15T06:10:09;102798.69;;;0.93;100.00
49030;BME280;43337;52.070;4.508;2023-02-15T06:12:35;102809.19;;;0.98;100.00
49030;BME280;43337;52.070;4.508;2023-02-15T06:15:00;102796.94;;;0.92;100.00
49030;BME280;43337;52.070;4.508;2023-02-15T06:17:26;102781.09;;;0.83;100.00
49030;BME280;43337;52.070;4.508;2023-02-15T06:19:51;102808.31;;;0.97;100.00
49030;BME280;43337;52.070;4.508;2023-02-15T06:22:17;102799.47;;;0.91;100.00
49030;BME280;43337;52.070;4.508;2023-02-15T06:24:42;102810.72;;;0.91;100.00
49030;BME280;43337;52.070;4.508;2023-02-15T06:27:09;102821.19;;;0.94;100.00
49030;BME280;43337;52.070;4.508;2023-02-15T06:29:35;102801.16;;;0.89;100.00
49030;BME280;43337;52.070;4.508;2023-02-15T06:32:00;102795.91;;;0.87;100.00
49030;BME280;43337;52.070;4.508;2023-02-15T06:34:25;102792.34;;;0.84;100.00
49030;BME280;43337;52.070;4.508;2023-02-15T06:36:51;102815.97;;;0.93;100.00
49030;BME280;43337;52.070;4.508;2023-02-15T06:39:16;102818.56;;;0.93;100.00
49030;BME280;43337;52.070;4.508;2023-02-15T06:41:42;102812.50;;;0.92;100.00
49030;BME280;43337;52.070;4.508;2023-02-15T06:44:07;102802.91;;;0.90;100.00
49030;BME280;43337;52.070;4.508;2023-02-15T06:46:33;102789.72;;;0.82;100.00
49030;BME280;43337;52.070;4.508;2023-02-15T06:48:58;102775.78;;;0.79;100.00
49030;BME280;43337;52.070;4.508;2023-02-15T06:51:24;102769.81;;;0.81;100.00
49030;BME280;43337;52.070;4.508;2023-02-15T06:53:49;102794.19;;;0.88;100.00
49030;BME280;43337;52.070;4.508;2023-02-15T06:56:14;102803.88;;;0.93;100.00
49030;BME280;43337;52.070;4.508;2023-02-15T06:58:41;102805.63;;;0.94;100.00
49030;BME280;43337;52.070;4.508;2023-02-15T07:01:08;102795.25;;;0.94;100.00
49030;BME280;43337;52.070;4.508;2023-02-15T07:03:35;102801.28;;;0.93;100.00
49030;BME280;43337;52.070;4.508;2023-02-15T07:06:02;102804.75;;;0.94;100.00
49030;BME280;43337;52.070;4.508;2023-02-15T07:08:28;102758.31;;;0.73;100.00
49030;BME280;43337;52.070;4.508;2023-02-15T07:10:55;102796.13;;;0.95;100.00
49030;BME280;43337;52.070;4.508;2023-02-15T07:13:41;102792.53;;;0.90;100.00
49030;BME280;43337;52.070;4.508;2023-02-15T07:16:08;102783.91;;;0.91;100.00
49030;BME280;43337;52.070;4.508;2023-02-15T07:18:34;102779.47;;;0.87;100.00
49030;BME280;43337;52.070;4.508;2023-02-15T07:21:00;102790.94;;;0.95;100.00
49030;BME280;43337;52.070;4.508;2023-02-15T07:23:25;102777.88;;;0.92;100.00
49030;BME280;43337;52.070;4.508;2023-02-15T07:25:59;102777.97;;;0.95;100.00
49030;BME280;43337;52.070;4.508;2023-02-15T07:28:25;102785.09;;;1.02;100.00
49030;BME280;43337;52.070;4.508;2023-02-15T07:30:50;102767.88;;;1.04;100.00
49030;BME280;43337;52.070;4.508;2023-02-15T07:33:16;102759.13;;;1.01;100.00
49030;BME280;43337;52.070;4.508;2023-02-15T07:35:54;102774.03;;;1.08;100.00
49030;BME280;43337;52.070;4.508;2023-02-15T07:38:20;102766.28;;;1.09;100.00
49030;BME280;43337;52.070;4.508;2023-02-15T07:40:47;102771.59;;;1.14;100.00
49030;BME280;43337;52.070;4.508;2023-02-15T07:43:12;102765.63;;;1.16;100.00
49030;BME280;43337;52.070;4.508;2023-02-15T07:45:38;102772.69;;;1.22;100.00
49030;BME280;43337;52.070;4.508;2023-02-15T07:48:04;102767.50;;;1.22;100.00
49030;BME280;43337;52.070;4.508;2023-02-15T07:50:31;102763.16;;;1.21;100.00
49030;BME280;43337;52.070;4.508;2023-02-15T07:52:56;102772.84;;;1.28;100.00
49030;BME280;43337;52.070;4.508;2023-02-15T07:55:21;102770.25;;;1.28;100.00
49030;BME280;43337;52.070;4.508;2023-02-15T07:57:48;102767.75;;;1.31;100.00
49030;BME280;43337;52.070;4.508;2023-02-15T08:00:19;102757.31;;;1.30;100.00
49030;BME280;43337;52.070;4.508;2023-02-15T08:02:49;102771.44;;;1.39;100.00
49030;BME280;43337;52.070;4.508;2023-02-15T08:05:35;102758.53;;;1.42;100.00
49030;BME280;43337;52.070;4.508;2023-02-15T08:08:01;102744.53;;;1.37;100.00
49030;BME280;43337;52.070;4.508;2023-02-15T08:10:26;102753.34;;;1.42;100.00
49030;BME280;43337;52.070;4.508;2023-02-15T08:13:11;102770.03;;;1.52;100.00
49030;BME280;43337;52.070;4.508;2023-02-15T08:15:37;102735.00;;;1.36;100.00
49030;BME280;43337;52.070;4.508;2023-02-15T08:18:04;102754.56;;;1.57;100.00
49030;BME280;43337;52.070;4.508;2023-02-15T08:20:29;102749.53;;;1.63;100.00
49030;BME280;43337;52.070;4.508;2023-02-15T08:22:54;102752.22;;;1.66;100.00
49030;BME280;43337;52.070;4.508;2023-02-15T08:25:20;102746.09;;;1.64;100.00
49030;BME280;43337;52.070;4.508;2023-02-15T08:27:45;102757.63;;;1.75;100.00
49030;BME280;43337;52.070;4.508;2023-02-15T08:30:12;102750.78;;;1.79;100.00
49030;BME280;43337;52.070;4.508;2023-02-15T08:32:39;102751.78;;;1.84;100.00
49030;BME280;43337;52.070;4.508;2023-02-15T08:35:04;102751.97;;;1.91;100.00
49030;BME280;43337;52.070;4.508;2023-02-15T08:37:30;102749.53;;;1.98;100.00
49030;BME280;43337;52.070;4.508;2023-02-15T08:39:55;102754.84;;;2.04;100.00
49030;BME280;43337;52.070;4.508;2023-02-15T08:42:21;102743.63;;;2.05;100.00
49030;BME280;43337;52.070;4.508;2023-02-15T08:44:46;102745.53;;;2.12;100.00
49030;BME280;43337;52.070;4.508;2023-02-15T08:47:11;102751.69;;;2.15;100.00
49030;BME280;43337;52.070;4.508;2023-02-15T08:49:37;102747.47;;;2.22;100.00
49030;BME280;43337;52.070;4.508;2023-02-15T08:52:02;102756.38;;;2.32;100.00
49030;BME280;43337;52.070;4.508;2023-02-15T08:54:28;102750.41;;;2.36;100.00
49030;BME280;43337;52.070;4.508;2023-02-15T08:56:53;102738.28;;;2.36;100.00
49030;BME280;43337;52.070;4.508;2023-02-15T08:59:21;102755.00;;;2.48;100.00
49030;BME280;43337;52.070;4.508;2023-02-15T09:01:49;102766.44;;;2.56;100.00
49030;BME280;43337;52.070;4.508;2023-02-15T09:04:15;102760.50;;;2.61;100.00
49030;BME280;43337;52.070;4.508;2023-02-15T09:06:41;102745.84;;;2.66;100.00
49030;BME280;43337;52.070;4.508;2023-02-15T09:09:10;102749.56;;;2.78;100.00
49030;BME280;43337;52.070;4.508;2023-02-15T09:11:41;102759.28;;;2.86;100.00
49030;BME280;43337;52.070;4.508;2023-02-15T09:14:18;102753.28;;;2.90;100.00
49030;BME280;43337;52.070;4.508;2023-02-15T09:16:46;102747.38;;;2.99;100.00
49030;BME280;43337;52.070;4.508;2023-02-15T09:19:13;102745.84;;;3.09;100.00
49030;BME280;43337;52.070;4.508;2023-02-15T09:21:39;102749.53;;;3.20;100.00
49030;BME280;43337;52.070;4.508;2023-02-15T09:24:09;102749.75;;;3.32;100.00
49030;BME280;43337;52.070;4.508;2023-02-15T09:26:37;102737.69;;;3.37;100.00
49030;BME280;43337;52.070;4.508;2023-02-15T09:29:03;102749.22;;;3.50;100.00
49030;BME280;43337;52.070;4.508;2023-02-15T09:31:34;102741.66;;;3.65;100.00
49030;BME280;43337;52.070;4.508;2023-02-15T09:34:01;102740.88;;;3.73;100.00
49030;BME280;43337;52.070;4.508;2023-02-15T09:36:30;102744.59;;;3.85;100.00
49030;BME280;43337;52.070;4.508;2023-02-15T09:38:59;102730.84;;;3.96;100.00
49030;BME280;43337;52.070;4.508;2023-02-15T09:56:08;102728.44;;;4.73;100.00
49030;BME280;43337;52.070;4.508;2023-02-15T09:58:48;102707.56;;;4.73;100.00
49030;BME280;43337;52.070;4.508;2023-02-15T10:06:38;102723.72;;;5.18;100.00
49030;BME280;43337;52.070;4.508;2023-02-15T10:09:27;102730.00;;;5.35;100.00
49030;BME280;43337;52.070;4.508;2023-02-15T10:17:25;102725.81;;;5.57;100.00
49030;BME280;43337;52.070;4.508;2023-02-15T10:28:23;102716.72;;;6.17;100.00
49030;BME280;43337;52.070;4.508;2023-02-15T10:30:51;102712.34;;;6.18;100.00
49030;BME280;43337;52.070;4.508;2023-02-15T10:33:40;102702.84;;;6.33;100.00
49030;BME280;43337;52.070;4.508;2023-02-15T10:50:59;102697.84;;;6.95;100.00
49030;BME280;43337;52.070;4.508;2023-02-15T11:01:30;102683.97;;;7.39;100.00
49030;BME280;43337;52.070;4.508;2023-02-15T11:06:47;102675.22;;;7.58;100.00
49030;BME280;43337;52.070;4.508;2023-02-15T11:09:16;102675.22;;;7.70;100.00
49030;BME280;43337;52.070;4.508;2023-02-15T11:11:46;102670.81;;;7.78;100.00
49030;BME280;43337;52.070;4.508;2023-02-15T11:14:44;102672.56;;;7.90;100.00
49030;BME280;43337;52.070;4.508;2023-02-15T11:17:16;102666.44;;;8.00;100.00
49030;BME280;43337;52.070;4.508;2023-02-15T11:19:54;102664.66;;;8.12;100.00
49030;BME280;43337;52.070;4.508;2023-02-15T11:22:21;102659.38;;;8.13;100.00
49030;BME280;43337;52.070;4.508;2023-02-15T11:24:47;102662.84;;;8.26;100.00
49030;BME280;43337;52.070;4.508;2023-02-15T11:27:26;102661.94;;;8.33;100.00
49030;BME280;43337;52.070;4.508;2023-02-15T11:30:05;102647.06;;;8.35;100.00
49030;BME280;43337;52.070;4.508;2023-02-15T11:32:43;102640.06;;;8.29;100.00
49030;BME280;43337;52.070;4.508;2023-02-15T11:38:02;102682.88;;;8.58;100.00
49030;BME280;43337;52.070;4.508;2023-02-15T11:40:34;102676.75;;;8.62;100.00
49030;BME280;43337;52.070;4.508;2023-02-15T11:43:11;102645.28;;;8.51;100.00
49030;BME280;43337;52.070;4.508;2023-02-15T11:45:41;102639.06;;;8.64;100.00
49030;BME280;43337;52.070;4.508;2023-02-15T11:48:10;102630.31;;;8.67;100.00
49030;BME280;43337;52.070;4.508;2023-02-15T11:50:37;102621.56;;;8.65;100.00
49030;BME280;43337;52.070;4.508;2023-02-15T11:53:22;102615.44;;;8.64;100.00
49030;BME280;43337;52.070;4.508;2023-02-15T11:55:53;102628.47;;;8.79;100.00
49030;BME280;43337;52.070;4.508;2023-02-15T11:58:37;102604.03;;;8.71;100.00
49030;BME280;43337;52.070;4.508;2023-02-15T12:01:15;102617.06;;;8.85;100.00
49030;BME280;43337;52.070;4.508;2023-02-15T12:06:44;102648.41;;;9.10;100.00
49030;BME280;43337;52.070;4.508;2023-02-15T12:12:25;102638.66;;;9.25;100.00
49030;BME280;43337;52.070;4.508;2023-02-15T12:14:53;102597.59;;;9.15;100.00
49030;BME280;43337;52.070;4.508;2023-02-15T12:17:31;102621.06;;;9.35;100.00
49030;BME280;43337;52.070;4.508;2023-02-15T12:20:02;102617.50;;;9.41;100.00
49030;BME280;43337;52.070;4.508;2023-02-15T12:22:34;102627.09;;;9.49;100.00
49030;BME280;43337;52.070;4.508;2023-02-15T12:25:23;102609.56;;;9.47;100.00
49030;BME280;43337;52.070;4.508;2023-02-15T12:27:50;102608.59;;;9.56;100.00
49030;BME280;43337;52.070;4.508;2023-02-15T12:30:21;102634.75;;;9.72;100.00
49030;BME280;43337;52.070;4.508;2023-02-15T12:38:05;102611.75;;;9.90;100.00
49030;BME280;43337;52.070;4.508;2023-02-15T12:40:32;102594.28;;;9.84;100.00
49030;BME280;43337;52.070;4.508;2023-02-15T12:42:59;102608.16;;;10.00;100.00
49030;BME280;43337;52.070;4.508;2023-02-15T12:45:27;102598.53;;;9.97;100.00
49030;BME280;43337;52.070;4.508;2023-02-15T12:50:38;102598.38;;;10.10;100.00
49030;BME280;43337;52.070;4.508;2023-02-15T12:53:34;102610.53;;;10.20;100.00
49030;BME280;43337;52.070;4.508;2023-02-15T12:56:03;102603.47;;;10.26;100.00
49030;BME280;43337;52.070;4.508;2023-02-15T12:58:30;102610.47;;;10.27;100.00
49030;BME280;43337;52.070;4.508;2023-02-15T13:03:35;102574.59;;;10.17;100.00
49030;BME280;43337;52.070;4.508;2023-02-15T13:06:03;102580.66;;;10.24;100.00
49030;BME280;43337;52.070;4.508;2023-02-15T13:08:45;102585.03;;;10.26;100.00
49030;BME280;43337;52.070;4.508;2023-02-15T13:11:11;102585.91;;;10.25;100.00
49030;BME280;43337;52.070;4.508;2023-02-15T13:13:55;102590.25;;;10.30;100.00
49030;BME280;43337;52.070;4.508;2023-02-15T13:16:41;102586.75;;;10.31;100.00
49030;BME280;43337;52.070;4.508;2023-02-15T13:19:31;102590.25;;;10.31;100.00
49030;BME280;43337;52.070;4.508;2023-02-15T13:22:02;102584.97;;;10.30;100.00
49030;BME280;43337;52.070;4.508;2023-02-15T13:24:33;102581.53;;;10.21;100.00
49030;BME280;43337;52.070;4.508;2023-02-15T13:27:01;102585.91;;;10.25;100.00
49030;BME280;43337;52.070;4.508;2023-02-15T13:29:31;102585.91;;;10.24;100.00
49030;BME280;43337;52.070;4.508;2023-02-15T13:32:07;102580.69;;;10.21;100.00
49030;BME280;43337;52.070;4.508;2023-02-15T13:34:36;102575.41;;;10.21;100.00
49030;BME280;43337;52.070;4.508;2023-02-15T13:37:06;102572.75;;;10.24;100.00
49030;BME280;43337;52.070;4.508;2023-02-15T13:39:46;102564.88;;;10.22;100.00
49030;BME280;43337;52.070;4.508;2023-02-15T13:42:25;102565.66;;;10.32;100.00
49030;BME280;43337;52.070;4.508;2023-02-15T13:45:21;102543.78;;;10.27;100.00
49030;BME280;43337;52.070;4.508;2023-02-15T14:01:39;102546.66;;;10.70;100.00
49030;BME280;43337;52.070;4.508;2023-02-15T14:10:18;102537.88;;;10.70;100.00
49030;BME280;43337;52.070;4.508;2023-02-15T14:13:12;102531.75;;;10.68;100.00
49030;BME280;43337;52.070;4.508;2023-02-15T14:15:48;102531.63;;;10.77;100.00
49030;BME280;43337;52.070;4.508;2023-02-15T14:18:34;102527.19;;;10.79;100.00
49030;BME280;43337;52.070;4.508;2023-02-15T14:21:06;102541.94;;;10.91;100.00
49030;BME280;43337;52.070;4.508;2023-02-15T14:32:07;102543.69;;;10.92;100.00
49030;BME280;43337;52.070;4.508;2023-02-15T14:35:00;102550.69;;;10.93;100.00
49030;BME280;43337;52.070;4.508;2023-02-15T14:40:26;102543.88;;;10.80;100.00
49030;BME280;43337;52.070;4.508;2023-02-15T14:43:30;102561.38;;;10.84;100.00
49030;BME280;43337;52.070;4.508;2023-02-15T14:51:06;102536.97;;;10.71;100.00
49030;BME280;43337;52.070;4.508;2023-02-15T14:58:35;102537.03;;;10.68;100.00
49030;BME280;43337;52.070;4.508;2023-02-15T15:01:09;102532.75;;;10.61;100.00
49030;BME280;43337;52.070;4.508;2023-02-15T15:03:35;102553.78;;;10.65;100.00
49030;BME280;43337;52.070;4.508;2023-02-15T15:06:03;102540.66;;;10.61;100.00
49030;BME280;43337;52.070;4.508;2023-02-15T15:08:38;102544.19;;;10.61;100.00
49030;BME280;43337;52.070;4.508;2023-02-15T15:19:04;102533.03;;;10.41;100.00
49030;BME280;43337;52.070;4.508;2023-02-15T15:46:18;102516.78;;;10.10;100.00
49030;BME280;43337;52.070;4.508;2023-02-15T15:48:49;102513.34;;;10.03;100.00
49030;BME280;43337;52.070;4.508;2023-02-15T15:51:24;102516.91;;;10.00;100.00
49030;BME280;43337;52.070;4.508;2023-02-15T15:53:53;102499.50;;;9.92;100.00
49030;BME280;43337;52.070;4.508;2023-02-15T15:56:21;102509.13;;;9.91;100.00
49030;BME280;43337;52.070;4.508;2023-02-15T15:58:57;102522.25;;;9.96;100.00
49030;BME280;43337;52.070;4.508;2023-02-15T16:01:34;102517.00;;;9.91;100.00
49030;BME280;43337;52.070;4.508;2023-02-15T16:04:01;102509.19;;;9.87;100.00
49030;BME280;43337;52.070;4.508;2023-02-15T16:06:37;102493.53;;;9.77;100.00